Flight Track Log - Related Links

Times and Time Zones

All times are in EDT time to prevent confusion due to time zone crossing. See the BOE787 flight status page for this flight to view local times or setup timezone preferences in your user account.

Time Position Orientation Groundspeed Altitude Reporting Facility
EDT Latitude Longitude Course Direction KTS MPH feet Rate Location/Type
Thu 09:10:15 AM 39.8667 -75.2667 246° West 133 153 1,200  Level Philadelphia TRACON
Thu 09:11:01 AM 39.8542 -75.3031 252° West 158 182 2,400 1,605 Climbing FAA TRACON SMA TRACON (SMA)
Thu 09:11:41 AM 39.8425 -75.3492 252° West 215 247 3,500 2,400 Climbing FAA TRACON SMA TRACON (SMA)
Thu 09:12:21 AM 39.8278 -75.4086 279° West 256 295 5,600 3,375 Climbing FAA TRACON SMA TRACON (SMA)
Thu 09:13:01 AM 39.8347 -75.4633 341° North 254 292 8,000 3,600 Climbing FAA TRACON SMA TRACON (SMA)
Thu 09:13:41 AM 39.8822 -75.4847 351° North 288 331 10,400 2,850 Climbing FAA TRACON SMA TRACON (SMA)
Thu 09:14:21 AM 39.9308 -75.4953 350° North 285 328 11,800 1,275 Climbing FAA TRACON SMA TRACON (SMA)
Thu 09:15:01 AM 39.9942 -75.5106 351° North 350 403 12,100 900 Climbing FAA TRACON SMA TRACON (SMA)
Thu 09:15:41 AM 40.0633 -75.5253 350° North 361 415 13,000 675 Climbing FAA TRACON SMA TRACON (SMA)
Thu 09:16:21 AM 40.1242 -75.5389 350° North 360 414 13,000 375 Level FAA TRACON SMA TRACON (SMA)
Thu 09:17:01 AM 40.1928 -75.5544 327° Northwest 360 414 13,500 1,976 Climbing FAA TRACON SMA TRACON (SMA)
Thu 09:17:43 AM 40.2494 -75.6019 311° West 356 410 15,700 2,962 Climbing FAA TRACON SMA TRACON (SMA)
Thu 09:18:20 AM 40.2906 -75.6636 310° West 366 421 17,400 1,923 Climbing FAA TRACON SMA TRACON (SMA)
Thu 09:19:01 AM 40.3111 -75.6958 310° West 371 427 18,200 2,345 Climbing FAA TRACON SMA TRACON (SMA)
Thu 09:20:10 AM 40.4106 -75.8519 292° West 391 450 21,700 2,308 Climbing New York Center
Thu 09:21:11 AM 40.4544 -75.9917 282° West 402 463 23,200 1,160 Climbing New York Center
Thu 09:22:09 AM 40.4806 -76.1517 280° West 426 490 24,000 1,831 Climbing New York Center
Thu 09:23:09 AM 40.5025 -76.3119 283° West 441 507 26,800 2,231 Climbing New York Center
Thu 09:24:10 AM 40.5300 -76.4753 284° West 446 513 28,500 1,587 Climbing New York Center
Thu 09:25:10 AM 40.5597 -76.6361 289° West 452 520 30,000 1,563 Climbing New York Center
Thu 09:26:09 AM 40.6053 -76.8069 289° West 457 526 31,600 1,815 Climbing New York Center
Thu 09:27:09 AM 40.6472 -76.9636 292° West 462 532 33,600 1,835 Climbing New York Center
Thu 09:28:10 AM 40.6933 -77.1158 294° West 452 520 35,300 1,525 Climbing New York Center
Thu 09:29:11 AM 40.7436 -77.2628 295° West 442 509 36,700 1,261 Climbing New York Center
Thu 09:30:09 AM 40.7889 -77.3906 294° West 437 503 37,800 1,008 Climbing New York Center
Thu 09:31:10 AM 40.8369 -77.5325 293° West 432 497 38,700 779 Climbing New York Center
Thu 09:32:43 AM 40.9144 -77.7722 294° West 435 501 39,800 510 Climbing Cleveland Center
Thu 09:33:43 AM 40.9639 -77.9214 293° West 440 506 40,000 100 Climbing Cleveland Center
Thu 09:34:43 AM 41.0131 -78.0733 294° West 440 506 40,000  Level Cleveland Center
Thu 09:35:43 AM 41.0622 -78.2231 293° West 445 512 40,000  Level Cleveland Center
Thu 09:36:43 AM 41.1133 -78.3811 293° West 454 522 40,000  Level Cleveland Center
Thu 09:37:43 AM 41.1619 -78.5339 293° West 454 522 40,000  Level Cleveland Center
Thu 09:38:43 AM 41.2106 -78.6869 293° West 449 517 40,000  Level Cleveland Center
Thu 09:39:43 AM 41.2589 -78.8375 291° West 449 517 40,000  Level Cleveland Center
Thu 09:40:43 AM 41.3092 -79.0103 293° West 449 517 40,000  Level Cleveland Center
Thu 09:41:43 AM 41.3572 -79.1639 292° West 449 517 40,000  Level Cleveland Center
Thu 09:42:43 AM 41.4047 -79.3208 292° West 449 517 40,000  Level Cleveland Center
Thu 09:43:43 AM 41.4503 -79.4750 292° West 449 517 40,000  Level Cleveland Center
Thu 09:44:43 AM 41.4975 -79.6294 293° West 449 517 40,000  Level Cleveland Center
Thu 09:45:43 AM 41.5422 -79.7731 292° West 454 522 40,000  Level Cleveland Center
Thu 09:46:43 AM 41.5892 -79.9308 293° West 454 522 40,000  Level Cleveland Center
Thu 09:47:43 AM 41.6378 -80.0858 290° West 454 522 40,000  Level Cleveland Center
Thu 09:48:43 AM 41.6800 -80.2383 291° West 447 514 40,000  Level Cleveland Center
Thu 09:49:43 AM 41.7264 -80.3967 292° West 454 522 40,000  Level Cleveland Center
Thu 09:50:43 AM 41.7725 -80.5497 291° West 449 517 40,000  Level Cleveland Center
Thu 09:51:43 AM 41.8181 -80.7114 291° West 449 517 40,000  Level Cleveland Center
Thu 09:52:43 AM 41.8636 -80.8703 292° West 449 517 40,000  Level Cleveland Center
Thu 09:53:43 AM 41.9111 -81.0297 291° West 455 524 40,000  Level Cleveland Center
Thu 09:54:43 AM 41.9564 -81.1892 290° West 461 531 40,000  Level Cleveland Center
Thu 09:55:43 AM 41.9992 -81.3458 291° West 461 531 40,000  Level Cleveland Center
Thu 09:56:43 AM 42.0458 -81.5058 290° West 461 531 40,000  Level Cleveland Center
Thu 09:57:43 AM 42.0944 -81.6828 291° West 461 531 40,000  Level Cleveland Center
Thu 09:58:43 AM 42.1386 -81.8406 291° West 456 525 40,000  Level Cleveland Center
Thu 09:59:43 AM 42.1847 -82.0011 289° West 456 525 40,000  Level Cleveland Center
Thu 10:00:43 AM 42.2164 -82.1281 290° West 451 519 40,000  Level Cleveland Center
Thu 10:01:43 AM 42.2639 -82.3003 290° West 445 512 40,000 -50 Level Cleveland Center
Thu 10:02:43 AM 42.3072 -82.4642 290° West 450 518 39,900  Descending Cleveland Center
Thu 10:03:43 AM 42.3503 -82.6256 291° West 450 518 40,000  Climbing Cleveland Center
Thu 10:04:43 AM 42.3953 -82.7847 289° West 450 518 39,900  Descending Cleveland Center
Thu 10:05:43 AM 42.4358 -82.9464 290° West 450 518 40,000  Climbing Cleveland Center
Thu 10:06:43 AM 42.4803 -83.1114 290° West 456 525 39,900  Descending Cleveland Center
Thu 10:07:43 AM 42.5247 -83.2739 290° West 456 525 40,000 50 Climbing Cleveland Center
Thu 10:08:43 AM 42.5686 -83.4392 289° West 461 531 40,000 -33 Level Cleveland Center
Thu 10:10:43 AM 42.6497 -83.7675 289° West 466 536 39,900  Descending Cleveland Center
Thu 10:11:43 AM 42.6944 -83.9478 289° West 466 536 40,000  Climbing Cleveland Center
Thu 10:12:43 AM 42.7375 -84.1142 288° West 466 536 39,900  Descending Cleveland Center
Thu 10:13:43 AM 42.7781 -84.2806 290° West 466 536 40,000 35 Climbing Cleveland Center
Thu 10:15:35 AM 42.8536 -84.5683 289° West 476 548 40,000  Level Chicago Center
Thu 10:16:35 AM 42.8911 -84.7214 288° West 476 548 40,000  Level Chicago Center
Thu 10:17:35 AM 42.9336 -84.9000 289° West 471 542 40,000  Level Chicago Center
Thu 10:18:35 AM 42.9803 -85.0869 288° West 471 542 40,000  Level Chicago Center
Thu 10:19:35 AM 43.0197 -85.2517 289° West 471 542 40,000  Level Chicago Center
Thu 10:20:35 AM 43.0608 -85.4197 288° West 471 542 40,000  Level Chicago Center
Thu 10:21:35 AM 43.0997 -85.5850 289° West 471 542 40,000  Level Chicago Center
Thu 10:22:35 AM 43.1428 -85.7531 288° West 471 542 40,000  Level Chicago Center
Thu 10:23:35 AM 43.1833 -85.9244 288° West 471 542 40,000  Level Chicago Center
Thu 10:24:35 AM 43.2258 -86.1017 286° West 478 550 40,000  Level Chicago Center
Thu 10:25:35 AM 43.2597 -86.2681 287° West 472 543 40,000  Level Chicago Center
Thu 10:26:35 AM 43.2975 -86.4375 287° West 466 536 40,000  Level Chicago Center
Thu 10:27:35 AM 43.3347 -86.6042 287° West 466 536 40,000  Level Chicago Center
Thu 10:28:35 AM 43.3719 -86.7708 287° West 466 536 40,000  Level Chicago Center
Thu 10:29:35 AM 43.4111 -86.9436 287° West 466 536 40,000  Level Chicago Center
Thu 10:30:35 AM 43.4481 -87.1139 288° West 471 542 40,000  Level Chicago Center
Thu 10:31:35 AM 43.4864 -87.2811 286° West 471 542 40,000  Level Chicago Center
Thu 10:32:35 AM 43.5161 -87.4261 287° West 458 527 40,000  Level Chicago Center
Thu 10:33:35 AM 43.5542 -87.5997 286° West 453 521 40,000  Level Chicago Center
Thu 10:34:35 AM 43.5900 -87.7678 287° West 458 527 40,000  Level Chicago Center
Thu 10:35:35 AM 43.6275 -87.9361 286° West 458 527 40,000  Level Chicago Center
Thu 10:36:35 AM 43.6672 -88.1275 287° West 463 533 40,000  Level Chicago Center
Thu 10:37:35 AM 43.7044 -88.2961 287° West 463 533 40,000  Level Chicago Center
Thu 10:38:35 AM 43.7411 -88.4678 286° West 468 539 40,000  Level Chicago Center
Thu 10:39:35 AM 43.7758 -88.6397 286° West 468 539 40,000  Level Chicago Center
Thu 10:40:35 AM 43.8100 -88.8092 285° West 468 539 40,000  Level Chicago Center
Thu 10:41:35 AM 43.8419 -88.9786 285° West 462 532 40,000  Level Chicago Center
Thu 10:42:35 AM 43.8756 -89.1483 285° West 456 525 40,000  Level Chicago Center
Thu 10:43:35 AM 43.9092 -89.3211 285° West 456 525 40,000  Level Chicago Center
Thu 10:44:38 AM 43.9406 -89.4867 285° West 459 528 40,000  Level Minneapolis Center
Thu 10:45:41 AM 43.9731 -89.6567 285° West 458 527 40,000  Level Minneapolis Center
Thu 10:46:43 AM 44.0061 -89.8275 285° West 458 527 40,000  Level Minneapolis Center
Thu 10:47:46 AM 44.0450 -90.0283 285° West 460 529 40,000  Level Minneapolis Center
Thu 10:48:48 AM 44.0772 -90.1983 285° West 457 526 40,000  Level Minneapolis Center
Thu 10:49:51 AM 44.1111 -90.3706 284° West 460 529 40,000  Level Minneapolis Center
Thu 10:50:53 AM 44.1428 -90.5425 285° West 460 529 40,000  Level Minneapolis Center
Thu 10:51:56 AM 44.1800 -90.7419 284° West 458 527 40,000  Level Minneapolis Center
Thu 10:52:58 AM 44.2117 -90.9144 284° West 460 529 40,000  Level Minneapolis Center
Thu 10:54:01 AM 44.2403 -91.0742 284° West 458 527 40,000  Level Minneapolis Center
Thu 10:55:04 AM 44.2708 -91.2433 284° West 457 526 40,000  Level Minneapolis Center
Thu 10:56:06 AM 44.3067 -91.4458 284° West 454 522 40,000  Level Minneapolis Center
Thu 10:57:09 AM 44.3353 -91.6042 283° West 457 526 40,000  Level Minneapolis Center
Thu 10:58:11 AM 44.3694 -91.8125 284° West 460 529 40,000  Level Minneapolis Center
Thu 10:59:17 AM 44.3997 -91.9844 284° West 458 527 40,000  Level Minneapolis Center
Thu 11:00:19 AM 44.4292 -92.1561 283° West 457 526 40,000  Level Minneapolis Center
Thu 11:01:22 AM 44.4631 -92.3600 283° West 452 520 40,000  Level Minneapolis Center
Thu 11:02:24 AM 44.4917 -92.5292 283° West 448 516 40,000  Level Minneapolis Center
Thu 11:03:27 AM 44.5189 -92.6975 283° West 447 514 40,000  Level Minneapolis Center
Thu 11:04:29 AM 44.5461 -92.8650 283° West 443 510 40,000  Level Minneapolis Center
Thu 11:05:32 AM 44.5733 -93.0353 282° West 444 511 40,000  Level Minneapolis Center
Thu 11:06:34 AM 44.6058 -93.2428 283° West 447 514 40,000  Level Minneapolis Center
Thu 11:07:37 AM 44.6344 -93.4161 283° West 448 516 40,000  Level Minneapolis Center
Thu 11:08:40 AM 44.6614 -93.5872 283° West 446 513 40,000  Level Minneapolis Center
Thu 11:09:42 AM 44.6883 -93.7547 282° West 442 509 40,000  Level Minneapolis Center
Thu 11:10:44 AM 44.7142 -93.9219 282° West 440 506 40,000  Level Minneapolis Center
Thu 11:11:47 AM 44.7400 -94.0883 282° West 438 504 40,000  Level Minneapolis Center
Thu 11:12:49 AM 44.7697 -94.2875 282° West 436 502 40,000  Level Minneapolis Center
Thu 11:13:52 AM 44.7947 -94.4536 282° West 436 502 40,000  Level Minneapolis Center
Thu 11:14:54 AM 44.8197 -94.6189 281° West 434 499 40,000  Level Minneapolis Center
Thu 11:15:57 AM 44.8425 -94.7783 281° West 433 498 40,000  Level Minneapolis Center
Thu 11:16:59 AM 44.8700 -94.9764 281° West 431 496 40,000  Level Minneapolis Center
Thu 11:18:01 AM 44.8933 -95.1403 281° West 430 495 40,000  Level Minneapolis Center
Thu 11:19:04 AM 44.9164 -95.3036 281° West 428 493 40,000  Level Minneapolis Center
Thu 11:20:06 AM 44.9383 -95.4672 281° West 428 493 40,000  Level Minneapolis Center
Thu 11:21:08 AM 44.9600 -95.6308 281° West 428 493 40,000  Level Minneapolis Center
Thu 11:22:11 AM 44.9878 -95.8272 281° West 428 493 40,000  Level Minneapolis Center
Thu 11:23:13 AM 45.0094 -95.9906 281° West 427 491 40,000  Level Minneapolis Center
Thu 11:24:15 AM 45.0311 -96.1550 281° West 428 493 40,000  Level Minneapolis Center
Thu 11:25:18 AM 45.0528 -96.3181 280° West 426 490 40,000  Level Minneapolis Center
Thu 11:26:20 AM 45.0778 -96.5142 280° West 425 489 40,000  Level Minneapolis Center
Thu 11:27:23 AM 45.0989 -96.6786 280° West 427 491 40,000  Level Minneapolis Center
Thu 11:28:25 AM 45.1192 -96.8425 281° West 426 490 40,000  Level Minneapolis Center
Thu 11:29:27 AM 45.1411 -97.0067 280° West 426 490 40,000  Level Minneapolis Center
Thu 11:30:30 AM 45.1619 -97.1700 279° West 425 489 40,000  Level Minneapolis Center
Thu 11:31:32 AM 45.1839 -97.3669 279° West 424 488 40,000  Level Minneapolis Center
Thu 11:32:34 AM 45.2028 -97.5297 280° West 423 487 40,000  Level Minneapolis Center
Thu 11:33:36 AM 45.2219 -97.6903 280° West 419 482 40,000  Level Minneapolis Center
Thu 11:34:39 AM 45.2419 -97.8522 279° West 418 481 40,000  Level Minneapolis Center
Thu 11:35:41 AM 45.2606 -98.0139 279° West 418 481 40,000  Level Minneapolis Center
Thu 11:36:43 AM 45.2828 -98.2122 279° West 419 482 40,000  Level Minneapolis Center
Thu 11:37:46 AM 45.3000 -98.3744 280° West 418 481 40,000  Level Minneapolis Center
Thu 11:38:48 AM 45.3192 -98.5369 279° West 418 481 40,000  Level Minneapolis Center
Thu 11:39:50 AM 45.3364 -98.7003 279° West 419 482 40,000  Level Minneapolis Center
Thu 11:40:53 AM 45.3536 -98.8619 279° West 417 480 40,000  Level Minneapolis Center
Thu 11:41:55 AM 45.3708 -99.0228 279° West 415 478 40,000  Level Minneapolis Center
Thu 11:42:57 AM 45.3914 -99.2169 278° West 416 479 40,000  Level Minneapolis Center
Thu 11:44:00 AM 45.4078 -99.3783 278° West 415 478 40,000  Level Minneapolis Center
Thu 11:45:02 AM 45.4236 -99.5408 278° West 416 479 40,000  Level Minneapolis Center
Thu 11:46:05 AM 45.4400 -99.7014 278° West 415 478 40,000  Level Minneapolis Center
Thu 11:47:07 AM 45.4597 -99.8953 278° West 416 479 40,000  Level Minneapolis Center
Thu 11:48:09 AM 45.4750 -100.0583 278° West 417 480 40,000  Level Minneapolis Center
Thu 11:49:12 AM 45.4903 -100.2208 278° West 418 481 40,000  Level Minneapolis Center
Thu 11:50:14 AM 45.5053 -100.3836 277° West 418 481 40,000  Level Minneapolis Center
Thu 11:51:17 AM 45.5200 -100.5475 278° West 419 482 40,000  Level Minneapolis Center
Thu 11:52:19 AM 45.5381 -100.7417 277° West 415 478 40,000  Level Minneapolis Center
Thu 11:53:21 AM 45.5522 -100.9036 277° West 413 475 40,000  Level Minneapolis Center
Thu 11:54:24 AM 45.5658 -101.0658 278° West 414 476 40,000  Level Minneapolis Center
Thu 11:55:26 AM 45.5808 -101.2289 277° West 415 478 40,000  Level Minneapolis Center
Thu 11:56:29 AM 45.5947 -101.3908 277° West 413 475 40,000  Level Minneapolis Center
Thu 11:57:31 AM 45.6108 -101.5850 277° West 412 474 40,000  Level Minneapolis Center
Thu 11:58:33 AM 45.6247 -101.7461 276° West 411 473 40,000  Level Minneapolis Center
Thu 11:59:36 AM 45.6375 -101.9089 276° West 412 474 40,000  Level Minneapolis Center
Thu 12:00:38 PM 45.6494 -102.0736 277° West 414 476 40,000  Level Minneapolis Center
Thu 12:01:40 PM 45.6628 -102.2383 274° West 417 480 40,000  Level Minneapolis Center
Thu 12:02:26 PM 45.6703 -102.3858 276° West 417 480 40,000 -56 Level Salt Lake Center
Thu 12:03:28 PM 45.6831 -102.5506 276° West 418 481 39,900  Descending Salt Lake Center
Thu 12:04:31 PM 45.6942 -102.7164 276° West 418 481 40,000 48 Climbing Salt Lake Center
Thu 12:05:34 PM 45.7061 -102.8833 277° West 419 482 40,000  Level Salt Lake Center
Thu 12:06:36 PM 45.7225 -103.0758 275° West 416 479 40,000  Level Salt Lake Center
Thu 12:07:39 PM 45.7331 -103.2433 275° West 418 481 40,000 -48 Level Salt Lake Center
Thu 12:08:41 PM 45.7436 -103.4100 275° West 420 483 39,900  Descending Salt Lake Center
Thu 12:09:44 PM 45.7544 -103.5778 275° West 423 487 40,000 48 Climbing Salt Lake Center
Thu 12:10:46 PM 45.7653 -103.7472 275° West 426 490 40,000  Level Salt Lake Center
Thu 12:11:49 PM 45.7781 -103.9522 275° West 429 494 40,000 -48 Level Salt Lake Center
Thu 12:12:51 PM 45.7883 -104.1236 275° West 431 496 39,900  Descending Salt Lake Center
Thu 12:13:54 PM 45.7986 -104.2958 275° West 433 498 40,000 48 Climbing Salt Lake Center
Thu 12:14:57 PM 45.8083 -104.4694 275° West 436 502 40,000  Level Salt Lake Center
Thu 12:15:59 PM 45.8200 -104.6789 275° West 439 505 40,000  Level Salt Lake Center
Thu 12:17:02 PM 45.8297 -104.8458 274° West 439 505 40,000  Level Salt Lake Center
Thu 12:18:04 PM 45.8389 -105.0406 274° West 438 504 40,000  Level Salt Lake Center
Thu 12:19:07 PM 45.8467 -105.2081 275° West 440 506 40,000  Level Salt Lake Center
Thu 12:20:09 PM 45.8575 -105.4022 273° West 439 505 40,000  Level Salt Lake Center
Thu 12:21:12 PM 45.8639 -105.5706 274° West 440 506 40,000  Level Salt Lake Center
Thu 12:22:15 PM 45.8719 -105.7633 273° West 437 503 40,000  Level Salt Lake Center
Thu 12:23:17 PM 45.8783 -105.9306 274° West 438 504 40,000  Level Salt Lake Center
Thu 12:24:20 PM 45.8875 -106.1272 274° West 440 506 40,000  Level Salt Lake Center
Thu 12:25:22 PM 45.8950 -106.2981 274° West 444 511 40,000  Level Salt Lake Center
Thu 12:26:25 PM 45.9042 -106.4950 274° West 445 512 40,000  Level Salt Lake Center
Thu 12:27:28 PM 45.9117 -106.6650 273° West 445 512 40,000  Level Salt Lake Center
Thu 12:28:30 PM 45.9197 -106.8642 273° West 446 513 40,000  Level Salt Lake Center
Thu 12:29:33 PM 45.9247 -107.0314 272° West 445 512 40,000  Level Salt Lake Center
Thu 12:30:35 PM 45.9286 -107.2256 273° West 441 507 40,000  Level Salt Lake Center
Thu 12:31:38 PM 45.9336 -107.3939 273° West 441 507 40,000  Level Salt Lake Center
Thu 12:32:41 PM 45.9400 -107.5911 272° West 444 511 40,000  Level Salt Lake Center
Thu 12:33:43 PM 45.9456 -107.7894 272° West 446 513 40,000  Level Salt Lake Center
Thu 12:34:46 PM 45.9503 -107.9594 272° West 446 513 40,000  Level Salt Lake Center
Thu 12:35:48 PM 45.9550 -108.1583 272° West 447 514 40,000  Level Salt Lake Center
Thu 12:36:51 PM 45.9597 -108.3294 272° West 448 516 40,000  Level Salt Lake Center
Thu 12:37:54 PM 45.9650 -108.5306 272° West 453 521 40,000  Level Salt Lake Center
Thu 12:38:56 PM 45.9681 -108.7039 271° West 456 525 40,000  Level Salt Lake Center
Thu 12:39:59 PM 45.9711 -108.9044 271° West 452 520 40,000  Level Salt Lake Center
Thu 12:41:01 PM 45.9733 -109.0764 271° West 451 519 40,000  Level Salt Lake Center
Thu 12:42:04 PM 45.9764 -109.2786 271° West 453 521 40,000  Level Salt Lake Center
Thu 12:43:06 PM 45.9792 -109.4517 271° West 453 521 40,000  Level Salt Lake Center
Thu 12:44:09 PM 45.9817 -109.6550 271° West 457 526 40,000  Level Salt Lake Center
Thu 12:45:12 PM 45.9831 -109.8292 270° West 456 525 40,000  Level Salt Lake Center
Thu 12:46:14 PM 45.9833 -110.0342 271° West 458 527 40,000  Level Salt Lake Center
Thu 12:47:17 PM 45.9844 -110.2069 270° West 455 524 40,000  Level Salt Lake Center
Thu 12:48:19 PM 45.9853 -110.4081 271° West 452 520 40,000  Level Salt Lake Center
Thu 12:49:22 PM 45.9867 -110.6019 270° West 452 520 40,000  Level Salt Lake Center
Thu 12:50:25 PM 45.9867 -110.7828 270° West 452 520 40,000  Level Salt Lake Center
Thu 12:51:27 PM 45.9872 -110.9603 270° West 450 518 40,000  Level Salt Lake Center
Thu 12:52:30 PM 45.9869 -111.1731 270° West 452 520 40,000  Level Salt Lake Center
Thu 12:53:32 PM 45.9858 -111.3528 269° West 456 525 40,000  Level Salt Lake Center
Thu 12:54:35 PM 45.9844 -111.5325 269° West 455 524 40,000  Level Salt Lake Center
Thu 12:55:38 PM 45.9825 -111.7122 269° West 455 524 40,000  Level Salt Lake Center
Thu 12:56:40 PM 45.9800 -111.9283 269° West 452 520 40,000  Level Salt Lake Center
Thu 12:57:43 PM 45.9783 -112.1086 269° West 453 521 40,000  Level Salt Lake Center
Thu 12:58:45 PM 45.9758 -112.2914 269° West 456 525 40,000  Level Salt Lake Center
Thu 12:59:48 PM 45.9736 -112.4764 269° West 461 531 40,000  Level Salt Lake Center
Thu 01:00:51 PM 45.9703 -112.6614 269° West 463 533 40,000  Level Salt Lake Center
Thu 01:01:53 PM 45.9669 -112.8831 269° West 464 534 40,000  Level Salt Lake Center
Thu 01:02:56 PM 45.9636 -113.0681 268° West 464 534 40,000  Level Salt Lake Center
Thu 01:03:58 PM 45.9594 -113.2542 269° West 465 535 40,000  Level Salt Lake Center
Thu 01:05:01 PM 45.9561 -113.4389 268° West 464 534 40,000  Level Salt Lake Center
Thu 01:06:03 PM 45.9522 -113.6369 268° West 466 536 40,000  Level Salt Lake Center
Thu 01:07:06 PM 45.9472 -113.8228 268° West 466 536 40,000 -48 Level Salt Lake Center
Thu 01:08:08 PM 45.9419 -114.0083 268° West 467 537 39,900  Descending Salt Lake Center
Thu 01:09:11 PM 45.9356 -114.2322 268° West 468 539 40,000 48 Climbing Salt Lake Center
Thu 01:10:13 PM 45.9303 -114.4083 267° West 470 541 40,000  Level Salt Lake Center
Thu 01:10:58 PM 45.9261 -114.5311 268° West 469 540 40,000  Level Seattle Center
Thu 01:11:59 PM 45.9194 -114.7508 267° West 470 541 40,000 -49 Level Seattle Center
Thu 01:13:00 PM 45.9128 -114.9378 267° West 469 540 39,900 -49 Descending Seattle Center
Thu 01:14:01 PM 45.9061 -115.1258 267° West 472 543 39,900  Level Seattle Center
Thu 01:15:03 PM 45.8986 -115.3150 267° West 474 545 39,900  Level Seattle Center
Thu 01:16:04 PM 45.8914 -115.5053 266° West 476 548 39,900  Level Seattle Center
Thu 01:17:05 PM 45.8828 -115.6964 267° West 479 551 39,900  Level Seattle Center
Thu 01:18:06 PM 45.8744 -115.8894 266° West 482 555 39,900 49 Level Seattle Center
Thu 01:19:07 PM 45.8658 -116.0828 266° West 484 557 40,000 49 Climbing Seattle Center
Thu 01:20:08 PM 45.8567 -116.2750 266° West 484 557 40,000  Level Seattle Center
Thu 01:21:09 PM 45.8472 -116.4681 266° West 485 558 40,000  Level Seattle Center
Thu 01:22:10 PM 45.8361 -116.6978 266° West 483 556 40,000  Level Seattle Center
Thu 01:23:11 PM 45.8256 -116.8906 265° West 484 557 40,000  Level Seattle Center
Thu 01:24:13 PM 45.8147 -117.0839 265° West 486 559 40,000 -49 Level Seattle Center
Thu 01:25:14 PM 45.8036 -117.2772 266° West 486 559 39,900  Descending Seattle Center
Thu 01:26:15 PM 45.7933 -117.4708 265° West 488 562 40,000  Climbing Seattle Center
Thu 01:27:16 PM 45.7814 -117.6606 265° West 482 555 39,900  Descending Seattle Center
Thu 01:28:17 PM 45.7697 -117.8514 265° West 482 555 40,000  Climbing Seattle Center
Thu 01:29:18 PM 45.7583 -118.0414 265° West 480 552 39,900 -49 Descending Seattle Center
Thu 01:30:19 PM 45.7461 -118.2317 264° West 480 552 39,900 49 Level Seattle Center
Thu 01:31:20 PM 45.7331 -118.4186 265° West 477 549 40,000 49 Climbing Seattle Center
Thu 01:32:21 PM 45.7206 -118.6056 264° West 474 545 40,000 -49 Level Seattle Center
Thu 01:33:22 PM 45.7078 -118.7928 264° West 474 545 39,900  Descending Seattle Center
Thu 01:34:23 PM 45.6906 -119.0178 261° West 476 548 40,000 49 Climbing Seattle Center
Thu 01:35:24 PM 45.6694 -119.2047 260° West 476 548 40,000 -49 Level Seattle Center
Thu 01:36:26 PM 45.6472 -119.3889 261° West 475 547 39,900  Descending Seattle Center
Thu 01:37:27 PM 45.6261 -119.5753 261° West 475 547 40,000 49 Climbing Seattle Center
Thu 01:38:28 PM 45.6056 -119.7608 260° West 474 545 40,000  Level Seattle Center
Thu 01:39:29 PM 45.5839 -119.9444 261° West 472 543 40,000 -738 Level Seattle Center
Thu 01:40:30 PM 45.5639 -120.1261 261° West 467 537 38,500 -2,066 Descending Seattle Center
Thu 01:41:31 PM 45.5433 -120.3019 261° West 457 526 35,800 -3,393 Descending Seattle Center
Thu 01:42:32 PM 45.5208 -120.4972 270° West 454 522 31,600 -3,689 Descending Seattle Center
Thu 01:43:33 PM 45.5217 -120.6867 270° West 473 544 28,300 -2,803 Descending Seattle Center
Thu 01:44:34 PM 45.5219 -120.8719 270° West 469 540 25,900 -2,262 Descending Seattle Center
Thu 01:45:35 PM 45.5214 -121.0533 269° West 464 534 23,700 -2,164 Descending Seattle Center
Thu 01:46:36 PM 45.5200 -121.2306 269° West 455 524 21,500 -2,213 Descending Seattle Center
Thu 01:47:37 PM 45.5186 -121.4014 269° West 441 507 19,200 -2,388 Descending Seattle Center
Thu 01:48:14 PM 45.5164 -121.5200 271° West 432 497 17,600 -2,351 Descending Seattle Center
Thu 01:48:51 PM 45.5172 -121.6200 269° West 423 487 16,300 -2,188 Descending Seattle Center
Thu 01:49:39 PM 45.5161 -121.7561 269° West 412 474 14,500 -1,255 Descending Seattle Center
Thu 01:50:41 PM 45.5139 -121.8817 278° West 393 452 14,000 -1,033 Descending Seattle Center
Thu 01:51:41 PM 45.5283 -122.0358 281° West 339 390 12,400 -1,500 Descending Seattle Center
Thu 01:52:41 PM 45.5436 -122.1508 291° West 303 349 11,000 -1,240 Descending Seattle Center
Thu 01:53:42 PM 45.5708 -122.2533 294° West 283 326 9,900 -590 Descending Seattle Center
Thu 01:54:43 PM 45.6022 -122.3542 292° West 260 299 9,800 -703 Descending Seattle Center
Thu 01:55:50 PM 45.6300 -122.4503 295° West 249 287 8,400 -1,597 Descending Seattle Center
Thu 01:56:47 PM 45.6556 -122.5289 289° West 248 285 6,500 -1,795 Descending Seattle Center
Thu 01:57:57 PM 45.6803 -122.6300 292° West 222 255 4,600 -1,377 Descending Seattle Center
Thu 01:58:49 PM 45.6975 -122.6911 282° West 223 257 3,700 -796 Descending Seattle Center
Thu 01:59:50 PM 45.7081 -122.7647 194° South 208 239 3,100 -639 Descending Seattle Center
Thu 02:00:51 PM 45.6642 -122.7808 126° Southeast 182 209 2,400 -732 Descending Seattle Center
Thu 02:01:53 PM 45.6369 -122.7272 122° Southeast 184 212 1,600 -829 Descending Seattle Center
Thu 02:02:54 PM 45.6133 -122.6722 115° Southeast 144 166 700 -885 Descending Seattle Center
Thu 02:10:02 PM 45.2457 -121.5691 115° Southeast  Level Estimated

Login

Don't have an account? Register now (free) for customized features, flight alerts, and more!